createdAt,value
2023-04-05T00:04:06.711Z,81.18
2023-04-05T00:09:08.382Z,81.92
2023-04-05T00:14:11.420Z,80.92
2023-04-05T00:19:13.652Z,80.93
2023-04-05T00:24:15.455Z,81.63
2023-04-05T00:29:18.483Z,81.21
2023-04-05T00:34:20.097Z,81.69
2023-04-05T00:39:21.833Z,84.91
2023-04-05T00:44:24.986Z,84.87
2023-04-05T00:49:26.965Z,82.82
2023-04-05T00:54:29.453Z,84.53
2023-04-05T00:59:32.579Z,85.41
2023-04-05T01:04:36.169Z,83.81
2023-04-05T01:09:45.825Z,83.36
2023-04-05T01:14:51.100Z,84.25
2023-04-05T01:19:54.213Z,83.86
2023-04-05T01:25:15.909Z,85.44
2023-04-05T01:30:22.798Z,84.80
2023-04-05T01:35:31.845Z,84.41
2023-04-05T01:40:35.978Z,85.29
2023-04-05T01:45:38.981Z,85.41
2023-04-05T01:50:40.775Z,86.37
2023-04-05T01:55:42.576Z,86.61
2023-04-05T02:00:45.700Z,86.52
2023-04-05T02:05:47.406Z,84.44
2023-04-05T02:10:49.109Z,86.08
2023-04-05T02:15:52.543Z,85.27
2023-04-05T02:21:00.734Z,86.24
2023-04-05T02:26:02.775Z,86.84
2023-04-05T02:31:10.196Z,86.99
2023-04-05T02:36:13.122Z,87.47
2023-04-05T02:41:14.789Z,86.46
2023-04-05T02:46:17.816Z,87.78
2023-04-05T02:51:19.698Z,87.87
2023-04-05T02:56:21.385Z,87.36
2023-04-05T03:01:25.130Z,89.21
2023-04-05T03:06:26.874Z,88.71
2023-04-05T03:11:28.597Z,88.77
2023-04-05T03:16:31.777Z,89.09
2023-04-05T03:21:33.443Z,88.49
2023-04-05T03:26:35.134Z,88.40
2023-04-05T03:31:38.281Z,87.09
2023-04-05T03:36:40.031Z,87.28
2023-04-05T03:41:42.184Z,87.85
2023-04-05T03:46:45.237Z,88.96
2023-04-05T03:51:47.105Z,88.41
2023-04-05T03:56:48.887Z,87.48
2023-04-05T04:01:53.113Z,88.35
2023-04-05T04:06:54.908Z,86.72
2023-04-05T04:11:56.535Z,86.11
2023-04-05T04:16:59.690Z,87.67
2023-04-05T04:22:01.315Z,86.73
2023-04-05T04:27:03.139Z,85.84
2023-04-05T04:32:06.190Z,85.51
2023-04-05T04:37:07.948Z,85.79
2023-04-05T04:42:09.620Z,86.51
2023-04-05T04:47:13.737Z,87.26
2023-04-05T04:52:16.609Z,85.77
2023-04-05T04:57:18.231Z,86.68
2023-04-05T05:02:24.888Z,87.30
2023-04-05T05:07:26.534Z,87.78
2023-04-05T05:12:28.312Z,84.97
2023-04-05T05:17:31.339Z,86.26
2023-04-05T05:22:33.179Z,85.40
2023-04-05T05:27:34.860Z,88.58
2023-04-05T05:32:37.936Z,89.58
2023-04-05T05:37:40.174Z,75.41
2023-04-05T05:42:41.940Z,68.98
2023-04-05T05:47:44.933Z,62.89
2023-04-05T05:52:46.623Z,59.42
2023-04-05T05:57:48.281Z,55.99
2023-04-05T06:02:51.416Z,53.61
2023-04-05T06:07:53.155Z,52.06
2023-04-05T06:12:54.767Z,49.88
2023-04-05T06:17:57.942Z,49.33
2023-04-05T06:22:59.688Z,47.92
2023-04-05T06:28:02.808Z,47.08
2023-04-05T06:38:23.233Z,51.02
2023-04-05T06:43:25.329Z,50.07
2023-04-05T06:48:28.913Z,46.72
2023-04-05T06:53:32.297Z,45.40
2023-04-05T06:58:36.357Z,43.99
2023-04-05T07:03:38.094Z,43.03
2023-04-05T07:08:41.134Z,42.14
2023-04-05T07:13:42.820Z,40.80
2023-04-05T07:18:44.478Z,41.13
2023-04-05T07:23:47.628Z,40.47
2023-04-05T07:28:49.307Z,40.42
2023-04-05T07:33:51.169Z,41.61
2023-04-05T07:38:54.395Z,41.32
2023-04-05T07:43:56.088Z,45.29
2023-04-05T07:48:58.027Z,52.36
2023-04-05T07:54:01.939Z,50.59
2023-04-05T07:59:04.907Z,48.24
2023-04-05T08:04:06.637Z,45.57
2023-04-05T08:09:10.695Z,49.23
2023-04-05T08:14:13.012Z,52.04
2023-04-05T08:19:15.658Z,53.70
2023-04-05T08:24:18.953Z,49.38
2023-04-05T08:29:21.089Z,49.90
2023-04-05T08:34:22.947Z,52.01
2023-04-05T08:39:26.357Z,53.22
2023-04-05T08:44:32.216Z,50.41
2023-04-05T08:49:33.947Z,50.50
2023-04-05T08:54:37.086Z,47.52
2023-04-05T09:10:29.433Z,42.54
2023-04-05T09:15:31.608Z,42.71
2023-04-05T09:20:33.336Z,44.44
2023-04-05T09:25:38.647Z,43.65
2023-04-05T09:30:45.485Z,44.30
2023-04-05T09:35:50.308Z,44.99
2023-04-05T09:40:53.390Z,42.88
2023-04-05T09:45:55.332Z,42.26
2023-04-05T09:51:12.541Z,42.67
2023-04-05T09:56:16.513Z,43.84
2023-04-05T10:01:19.089Z,45.98
2023-04-05T10:06:21.173Z,43.99
2023-04-05T10:11:24.540Z,45.97
2023-04-05T10:16:28.641Z,44.81
2023-04-05T10:21:33.008Z,43.88
2023-04-05T10:26:45.272Z,41.72
2023-04-05T10:31:54.097Z,43.79
2023-04-05T10:36:58.774Z,41.78
2023-04-05T10:42:10.846Z,43.24
2023-04-05T10:47:16.526Z,43.00
2023-04-05T10:52:18.236Z,41.81
2023-04-05T10:57:22.923Z,42.41
2023-04-05T11:02:25.046Z,42.16
2023-04-05T11:07:42.067Z,42.79
2023-04-05T11:13:07.803Z,42.37
2023-04-05T11:18:11.396Z,42.54
2023-04-05T11:23:14.870Z,43.73
2023-04-05T11:28:29.862Z,43.41
2023-04-05T11:33:39.417Z,41.91
2023-04-05T11:38:43.839Z,43.33
2023-04-05T11:43:47.156Z,43.08
2023-04-05T11:48:49.512Z,41.56
2023-04-05T11:53:51.180Z,41.53
2023-04-05T11:58:58.259Z,38.71
2023-04-05T12:04:00.186Z,40.01
2023-04-05T12:09:06.813Z,37.95
2023-04-05T12:14:09.890Z,38.89
2023-04-05T12:19:11.613Z,40.20
2023-04-05T12:24:16.274Z,41.81
2023-04-05T12:29:19.337Z,40.50
2023-04-05T12:34:24.640Z,41.45
2023-04-05T12:39:29.404Z,39.55
2023-04-05T12:44:33.057Z,39.55
2023-04-05T12:49:37.602Z,40.73
2023-04-05T12:54:39.365Z,39.07
2023-04-05T12:59:42.468Z,38.90
2023-04-05T13:04:44.137Z,39.28
2023-04-05T13:09:45.874Z,38.98
2023-04-05T13:14:48.942Z,40.26
2023-04-05T13:19:50.666Z,39.67
2023-04-05T13:24:52.338Z,40.22
2023-04-05T13:29:55.349Z,40.27
2023-04-05T13:34:57.045Z,40.64
2023-04-05T13:39:58.731Z,39.89
2023-04-05T13:45:01.837Z,41.82
2023-04-05T13:50:04.324Z,39.88
2023-04-05T13:55:06.774Z,40.11
2023-04-05T14:00:11.572Z,40.71
2023-04-05T14:05:13.367Z,39.61
2023-04-05T14:10:15.350Z,43.78
2023-04-05T14:15:18.500Z,44.49
2023-04-05T14:20:20.271Z,40.58
2023-04-05T14:25:22.086Z,39.84
2023-04-05T14:30:25.574Z,42.67
2023-04-05T14:35:27.381Z,41.31
2023-04-05T14:40:29.126Z,40.86
2023-04-05T14:45:32.258Z,40.96
2023-04-05T14:50:34.052Z,40.43
2023-04-05T14:55:35.737Z,41.22
2023-04-05T15:00:39.711Z,43.74
2023-04-05T15:05:41.742Z,44.18
2023-04-05T15:10:43.831Z,40.82
2023-04-05T15:15:47.304Z,46.93
2023-04-05T15:20:49.460Z,39.75
2023-04-05T15:25:51.205Z,39.77
2023-04-05T15:30:54.335Z,42.99
2023-04-05T15:35:56.178Z,45.21
2023-04-05T15:40:57.980Z,50.85
2023-04-05T15:46:01.072Z,48.82
2023-04-05T15:51:03.039Z,41.56
2023-04-05T15:56:05.295Z,49.30
2023-04-05T16:01:08.400Z,49.05
2023-04-05T16:06:10.197Z,50.68
2023-04-05T16:11:12.014Z,50.73
2023-04-05T16:16:20.582Z,47.79
2023-04-05T16:21:30.499Z,51.08
2023-04-05T16:26:32.406Z,50.59
2023-04-05T16:31:35.664Z,53.68
2023-04-05T16:36:37.444Z,55.83
2023-04-05T16:41:39.264Z,56.37
2023-04-05T16:46:42.408Z,55.00
2023-04-05T16:51:44.124Z,53.16
2023-04-05T16:56:45.965Z,56.90
2023-04-05T17:01:54.464Z,57.95
2023-04-05T17:06:56.654Z,55.22
2023-04-05T17:11:58.411Z,55.81
2023-04-05T17:17:01.514Z,57.10
2023-04-05T17:22:03.278Z,56.41
2023-04-05T17:27:05.073Z,57.98
2023-04-05T17:32:09.447Z,55.99
2023-04-05T17:37:11.174Z,55.57
2023-04-05T17:42:12.984Z,53.23
2023-04-05T17:47:16.220Z,49.50
2023-04-05T17:52:17.978Z,50.14
2023-04-05T17:57:19.842Z,50.55
2023-04-05T18:02:23.498Z,55.78
2023-04-05T18:07:27.968Z,57.05
2023-04-05T18:12:29.749Z,57.61
2023-04-05T18:17:34.045Z,58.07
2023-04-05T18:22:35.853Z,59.43
2023-04-05T18:27:37.861Z,60.86
2023-04-05T18:32:41.095Z,58.66
2023-04-05T18:37:42.874Z,60.65
2023-04-05T18:42:44.574Z,62.43
2023-04-05T18:47:47.728Z,63.50
2023-04-05T18:52:49.462Z,63.79
2023-04-05T18:57:51.146Z,64.25
2023-04-05T19:02:54.388Z,66.28
2023-04-05T19:07:56.193Z,65.35
2023-04-05T19:12:57.891Z,66.34
2023-04-05T19:18:01.097Z,65.81
2023-04-05T19:23:02.930Z,67.32
2023-04-05T19:28:04.780Z,66.93
2023-04-05T19:33:07.924Z,68.53
2023-04-05T19:38:09.829Z,68.58
2023-04-05T19:43:12.581Z,68.08
2023-04-05T19:48:40.287Z,70.78
2023-04-05T19:53:44.144Z,70.96
2023-04-05T19:58:47.687Z,70.84
2023-04-05T20:03:50.987Z,70.67
2023-04-05T20:08:59.724Z,71.27
2023-04-05T20:14:01.603Z,69.21
2023-04-05T20:19:06.944Z,67.90
2023-04-05T20:24:14.225Z,68.16
2023-04-05T20:29:20.684Z,66.81
2023-04-05T20:34:28.490Z,66.40
2023-04-05T20:39:30.776Z,65.94
2023-04-05T20:44:32.712Z,66.51
2023-04-05T20:49:35.849Z,67.26
2023-04-05T20:54:37.747Z,66.90
2023-04-05T20:59:39.581Z,67.97
2023-04-05T21:04:42.860Z,68.43
2023-04-05T21:09:44.707Z,68.15
2023-04-05T21:14:46.405Z,68.79
2023-04-05T21:19:49.543Z,68.21
2023-04-05T21:24:51.269Z,68.26
2023-04-05T21:29:53.140Z,68.99
2023-04-05T21:34:56.284Z,69.79
2023-04-05T21:39:58.026Z,70.38
2023-04-05T21:44:59.743Z,69.21
2023-04-05T21:50:03.060Z,69.87
2023-04-05T21:55:05.518Z,69.22
2023-04-05T22:00:08.537Z,69.64
2023-04-05T22:05:13.060Z,71.28
2023-04-05T22:10:17.516Z,69.40
2023-04-05T22:15:19.277Z,68.81
2023-04-05T22:20:22.404Z,69.10
2023-04-05T22:25:24.241Z,70.44
2023-04-05T22:30:28.034Z,71.94
2023-04-05T22:35:31.364Z,72.19
2023-04-05T22:40:33.122Z,71.67
2023-04-05T22:45:34.967Z,71.79
2023-04-05T22:50:38.248Z,72.74
2023-04-05T22:55:40.160Z,71.99
2023-04-05T23:00:42.128Z,72.64
2023-04-05T23:05:45.259Z,72.24
2023-04-05T23:10:47.857Z,71.17
2023-04-05T23:15:49.617Z,73.55
2023-04-05T23:20:52.740Z,73.08
2023-04-05T23:25:54.424Z,73.39
2023-04-05T23:30:56.138Z,73.43
2023-04-05T23:35:59.383Z,75.50
2023-04-05T23:41:01.142Z,73.46
2023-04-05T23:46:02.870Z,75.00
2023-04-05T23:51:06.106Z,73.95
2023-04-05T23:56:07.877Z,74.27
